sensor_id;sensor_type;location;lat;lon;timestamp;temperature;humidity
17859;DHT22;35426;30.698;104.050;2023-12-20T00:01:28;8.30;99.90
17859;DHT22;35426;30.698;104.050;2023-12-20T00:04:05;8.40;99.90
17859;DHT22;35426;30.698;104.050;2023-12-20T00:06:40;8.30;99.90
17859;DHT22;35426;30.698;104.050;2023-12-20T00:09:14;8.30;99.90
17859;DHT22;35426;30.698;104.050;2023-12-20T00:11:48;8.40;99.90
17859;DHT22;35426;30.698;104.050;2023-12-20T00:14:23;8.30;99.90
17859;DHT22;35426;30.698;104.050;2023-12-20T00:16:57;8.40;99.90
17859;DHT22;35426;30.698;104.050;2023-12-20T00:19:32;8.30;99.90
17859;DHT22;35426;30.698;104.050;2023-12-20T00:22:06;8.60;99.90
17859;DHT22;35426;30.698;104.050;2023-12-20T00:24:40;8.80;99.90
17859;DHT22;35426;30.698;104.050;2023-12-20T00:27:15;8.90;99.90
17859;DHT22;35426;30.698;104.050;2023-12-20T00:29:52;8.70;99.90
17859;DHT22;35426;30.698;104.050;2023-12-20T00:32:26;8.40;99.90
17859;DHT22;35426;30.698;104.050;2023-12-20T00:35:02;8.50;99.90
17859;DHT22;35426;30.698;104.050;2023-12-20T00:37:37;8.50;99.90
17859;DHT22;35426;30.698;104.050;2023-12-20T00:40:12;8.40;99.90
17859;DHT22;35426;30.698;104.050;2023-12-20T00:42:46;8.40;99.90
17859;DHT22;35426;30.698;104.050;2023-12-20T00:45:20;8.50;99.90
17859;DHT22;35426;30.698;104.050;2023-12-20T00:47:54;8.50;99.90
17859;DHT22;35426;30.698;104.050;2023-12-20T00:50:30;8.40;99.90
17859;DHT22;35426;30.698;104.050;2023-12-20T00:53:05;8.40;99.90
17859;DHT22;35426;30.698;104.050;2023-12-20T00:55:39;8.30;99.90
17859;DHT22;35426;30.698;104.050;2023-12-20T00:58:12;8.20;99.90
17859;DHT22;35426;30.698;104.050;2023-12-20T01:00:47;8.30;99.90
17859;DHT22;35426;30.698;104.050;2023-12-20T01:03:23;8.40;99.90
17859;DHT22;35426;30.698;104.050;2023-12-20T01:05:59;8.60;99.90
17859;DHT22;35426;30.698;104.050;2023-12-20T01:08:35;8.60;99.90
17859;DHT22;35426;30.698;104.050;2023-12-20T01:11:12;8.60;99.90
17859;DHT22;35426;30.698;104.050;2023-12-20T01:13:47;8.30;99.90
17859;DHT22;35426;30.698;104.050;2023-12-20T01:16:20;8.30;99.90
17859;DHT22;35426;30.698;104.050;2023-12-20T01:18:56;8.60;99.90
17859;DHT22;35426;30.698;104.050;2023-12-20T01:21:32;8.40;99.90
17859;DHT22;35426;30.698;104.050;2023-12-20T01:24:07;8.60;99.90
17859;DHT22;35426;30.698;104.050;2023-12-20T01:26:40;8.70;99.90
17859;DHT22;35426;30.698;104.050;2023-12-20T01:29:17;8.70;99.90
17859;DHT22;35426;30.698;104.050;2023-12-20T01:31:51;8.60;99.90
17859;DHT22;35426;30.698;104.050;2023-12-20T01:34:25;8.60;99.90
17859;DHT22;35426;30.698;104.050;2023-12-20T01:37:02;8.60;99.90
17859;DHT22;35426;30.698;104.050;2023-12-20T01:39:37;8.90;99.90
17859;DHT22;35426;30.698;104.050;2023-12-20T01:42:13;8.80;99.90
17859;DHT22;35426;30.698;104.050;2023-12-20T01:44:49;8.70;99.90
17859;DHT22;35426;30.698;104.050;2023-12-20T01:47:23;8.60;99.90
17859;DHT22;35426;30.698;104.050;2023-12-20T01:49:57;8.80;99.90
17859;DHT22;35426;30.698;104.050;2023-12-20T01:52:36;8.80;99.90
17859;DHT22;35426;30.698;104.050;2023-12-20T01:55:11;8.60;99.90
17859;DHT22;35426;30.698;104.050;2023-12-20T01:57:47;8.80;99.90
17859;DHT22;35426;30.698;104.050;2023-12-20T02:00:22;8.90;99.90
17859;DHT22;35426;30.698;104.050;2023-12-20T02:03:03;9.00;99.90
17859;DHT22;35426;30.698;104.050;2023-12-20T02:05:37;8.90;99.90
17859;DHT22;35426;30.698;104.050;2023-12-20T02:08:14;9.10;99.90
17859;DHT22;35426;30.698;104.050;2023-12-20T02:10:48;9.30;99.90
17859;DHT22;35426;30.698;104.050;2023-12-20T02:13:21;8.90;99.90
17859;DHT22;35426;30.698;104.050;2023-12-20T02:15:56;9.10;99.90
17859;DHT22;35426;30.698;104.050;2023-12-20T02:18:33;9.20;99.90
17859;DHT22;35426;30.698;104.050;2023-12-20T02:21:07;9.20;99.90
17859;DHT22;35426;30.698;104.050;2023-12-20T02:23:47;9.00;99.90
17859;DHT22;35426;30.698;104.050;2023-12-20T02:26:20;9.20;99.90
17859;DHT22;35426;30.698;104.050;2023-12-20T02:28:55;9.30;99.90
17859;DHT22;35426;30.698;104.050;2023-12-20T02:31:30;9.10;99.90
17859;DHT22;35426;30.698;104.050;2023-12-20T02:34:05;9.10;99.90
17859;DHT22;35426;30.698;104.050;2023-12-20T02:36:40;9.30;99.90
17859;DHT22;35426;30.698;104.050;2023-12-20T02:39:18;9.30;99.90
17859;DHT22;35426;30.698;104.050;2023-12-20T02:41:53;9.00;99.90
17859;DHT22;35426;30.698;104.050;2023-12-20T02:44:27;9.00;99.90
17859;DHT22;35426;30.698;104.050;2023-12-20T02:47:03;9.10;99.90
17859;DHT22;35426;30.698;104.050;2023-12-20T02:49:37;9.40;99.90
17859;DHT22;35426;30.698;104.050;2023-12-20T02:52:12;9.30;99.90
17859;DHT22;35426;30.698;104.050;2023-12-20T02:54:47;9.50;99.90
17859;DHT22;35426;30.698;104.050;2023-12-20T02:57:21;9.60;99.90
17859;DHT22;35426;30.698;104.050;2023-12-20T02:59:56;9.60;99.90
17859;DHT22;35426;30.698;104.050;2023-12-20T03:02:31;9.50;99.90
17859;DHT22;35426;30.698;104.050;2023-12-20T03:05:07;9.60;99.90
17859;DHT22;35426;30.698;104.050;2023-12-20T03:07:41;9.50;99.90
17859;DHT22;35426;30.698;104.050;2023-12-20T03:10:18;9.60;99.90
17859;DHT22;35426;30.698;104.050;2023-12-20T03:12:56;9.60;99.90
17859;DHT22;35426;30.698;104.050;2023-12-20T03:15:31;9.50;99.90
17859;DHT22;35426;30.698;104.050;2023-12-20T03:18:06;9.70;99.90
17859;DHT22;35426;30.698;104.050;2023-12-20T03:20:43;9.60;99.90
17859;DHT22;35426;30.698;104.050;2023-12-20T03:23:19;9.70;99.90
17859;DHT22;35426;30.698;104.050;2023-12-20T03:25:55;9.70;99.90
17859;DHT22;35426;30.698;104.050;2023-12-20T03:28:32;9.50;99.90
17859;DHT22;35426;30.698;104.050;2023-12-20T03:31:06;9.90;99.90
17859;DHT22;35426;30.698;104.050;2023-12-20T03:33:40;10.00;99.90
17859;DHT22;35426;30.698;104.050;2023-12-20T03:36:17;10.10;99.90
17859;DHT22;35426;30.698;104.050;2023-12-20T03:38:54;9.90;99.90
17859;DHT22;35426;30.698;104.050;2023-12-20T03:41:30;10.20;99.90
17859;DHT22;35426;30.698;104.050;2023-12-20T03:44:03;10.50;99.90
17859;DHT22;35426;30.698;104.050;2023-12-20T03:46:38;10.30;99.90
17859;DHT22;35426;30.698;104.050;2023-12-20T03:49:12;10.50;99.90
17859;DHT22;35426;30.698;104.050;2023-12-20T03:51:47;10.40;99.90
17859;DHT22;35426;30.698;104.050;2023-12-20T03:54:21;10.40;99.90
17859;DHT22;35426;30.698;104.050;2023-12-20T03:56:57;10.10;99.90
17859;DHT22;35426;30.698;104.050;2023-12-20T03:59:34;10.40;99.90
17859;DHT22;35426;30.698;104.050;2023-12-20T04:02:09;10.50;99.90
17859;DHT22;35426;30.698;104.050;2023-12-20T04:04:46;10.40;99.90
17859;DHT22;35426;30.698;104.050;2023-12-20T04:07:22;10.80;99.90
17859;DHT22;35426;30.698;104.050;2023-12-20T04:09:59;11.00;99.90
17859;DHT22;35426;30.698;104.050;2023-12-20T04:12:34;11.00;99.90
17859;DHT22;35426;30.698;104.050;2023-12-20T04:15:09;11.10;99.90
17859;DHT22;35426;30.698;104.050;2023-12-20T04:17:43;11.00;99.90
17859;DHT22;35426;30.698;104.050;2023-12-20T04:20:18;10.70;99.90
17859;DHT22;35426;30.698;104.050;2023-12-20T04:22:51;10.90;99.90
17859;DHT22;35426;30.698;104.050;2023-12-20T04:25:25;10.70;99.90
17859;DHT22;35426;30.698;104.050;2023-12-20T04:28:02;10.90;99.90
17859;DHT22;35426;30.698;104.050;2023-12-20T04:30:36;10.50;99.90
17859;DHT22;35426;30.698;104.050;2023-12-20T04:33:12;10.80;99.90
17859;DHT22;35426;30.698;104.050;2023-12-20T04:35:46;10.90;99.90
17859;DHT22;35426;30.698;104.050;2023-12-20T04:38:20;11.20;99.90
17859;DHT22;35426;30.698;104.050;2023-12-20T04:40:53;11.20;99.90
17859;DHT22;35426;30.698;104.050;2023-12-20T04:43:31;11.30;99.90
17859;DHT22;35426;30.698;104.050;2023-12-20T04:46:04;11.50;99.90
17859;DHT22;35426;30.698;104.050;2023-12-20T04:48:38;11.50;99.90
17859;DHT22;35426;30.698;104.050;2023-12-20T04:51:12;11.30;99.90
17859;DHT22;35426;30.698;104.050;2023-12-20T04:53:47;11.30;99.90
17859;DHT22;35426;30.698;104.050;2023-12-20T04:56:21;11.40;99.90
17859;DHT22;35426;30.698;104.050;2023-12-20T04:58:58;11.30;99.90
17859;DHT22;35426;30.698;104.050;2023-12-20T05:01:32;11.40;99.90
17859;DHT22;35426;30.698;104.050;2023-12-20T05:04:08;11.10;99.90
17859;DHT22;35426;30.698;104.050;2023-12-20T05:06:42;10.70;99.90
17859;DHT22;35426;30.698;104.050;2023-12-20T05:09:17;10.90;99.90
17859;DHT22;35426;30.698;104.050;2023-12-20T05:11:55;11.00;99.90
17859;DHT22;35426;30.698;104.050;2023-12-20T05:14:33;11.10;99.90
17859;DHT22;35426;30.698;104.050;2023-12-20T05:17:06;11.30;99.90
17859;DHT22;35426;30.698;104.050;2023-12-20T05:19:40;11.30;99.90
17859;DHT22;35426;30.698;104.050;2023-12-20T05:22:14;11.40;99.90
17859;DHT22;35426;30.698;104.050;2023-12-20T05:24:48;11.40;99.90
17859;DHT22;35426;30.698;104.050;2023-12-20T05:27:22;11.60;99.90
17859;DHT22;35426;30.698;104.050;2023-12-20T05:29:57;11.10;99.90
17859;DHT22;35426;30.698;104.050;2023-12-20T05:32:31;11.10;99.90
17859;DHT22;35426;30.698;104.050;2023-12-20T05:35:05;11.10;99.90
17859;DHT22;35426;30.698;104.050;2023-12-20T05:37:39;11.50;99.90
17859;DHT22;35426;30.698;104.050;2023-12-20T05:40:14;10.90;99.90
17859;DHT22;35426;30.698;104.050;2023-12-20T05:42:50;11.10;99.90
17859;DHT22;35426;30.698;104.050;2023-12-20T05:45:26;11.10;99.90
17859;DHT22;35426;30.698;104.050;2023-12-20T05:48:02;11.00;99.90
17859;DHT22;35426;30.698;104.050;2023-12-20T05:50:35;11.00;99.90
17859;DHT22;35426;30.698;104.050;2023-12-20T05:53:10;11.20;99.90
17859;DHT22;35426;30.698;104.050;2023-12-20T05:55:44;11.20;99.90
17859;DHT22;35426;30.698;104.050;2023-12-20T05:58:18;11.50;99.90
17859;DHT22;35426;30.698;104.050;2023-12-20T06:00:54;11.50;99.90
17859;DHT22;35426;30.698;104.050;2023-12-20T06:03:28;11.50;99.90
17859;DHT22;35426;30.698;104.050;2023-12-20T06:06:06;11.60;99.90
17859;DHT22;35426;30.698;104.050;2023-12-20T06:08:47;11.70;99.90
17859;DHT22;35426;30.698;104.050;2023-12-20T06:11:20;11.40;99.90
17859;DHT22;35426;30.698;104.050;2023-12-20T06:13:54;11.00;99.90
17859;DHT22;35426;30.698;104.050;2023-12-20T06:16:31;11.20;99.90
17859;DHT22;35426;30.698;104.050;2023-12-20T06:19:04;11.60;99.90
17859;DHT22;35426;30.698;104.050;2023-12-20T06:21:38;11.70;99.90
17859;DHT22;35426;30.698;104.050;2023-12-20T06:24:13;11.80;99.90
17859;DHT22;35426;30.698;104.050;2023-12-20T06:26:48;11.90;99.90
17859;DHT22;35426;30.698;104.050;2023-12-20T06:29:22;11.70;99.90
17859;DHT22;35426;30.698;104.050;2023-12-20T06:31:58;11.20;99.90
17859;DHT22;35426;30.698;104.050;2023-12-20T06:34:32;11.20;99.90
17859;DHT22;35426;30.698;104.050;2023-12-20T06:37:07;11.50;99.90
17859;DHT22;35426;30.698;104.050;2023-12-20T06:39:40;11.80;99.90
17859;DHT22;35426;30.698;104.050;2023-12-20T06:42:15;12.00;99.90
17859;DHT22;35426;30.698;104.050;2023-12-20T06:44:49;12.30;99.90
17859;DHT22;35426;30.698;104.050;2023-12-20T06:47:25;12.20;99.90
17859;DHT22;35426;30.698;104.050;2023-12-20T06:49:59;12.30;99.90
17859;DHT22;35426;30.698;104.050;2023-12-20T06:52:33;12.00;99.90
17859;DHT22;35426;30.698;104.050;2023-12-20T06:55:07;12.00;99.90
17859;DHT22;35426;30.698;104.050;2023-12-20T06:57:41;12.00;99.90
17859;DHT22;35426;30.698;104.050;2023-12-20T07:00:16;11.80;99.90
17859;DHT22;35426;30.698;104.050;2023-12-20T07:02:56;11.80;99.90
17859;DHT22;35426;30.698;104.050;2023-12-20T07:05:31;11.70;99.90
17859;DHT22;35426;30.698;104.050;2023-12-20T07:08:05;11.60;99.90
17859;DHT22;35426;30.698;104.050;2023-12-20T07:10:39;11.40;99.90
17859;DHT22;35426;30.698;104.050;2023-12-20T07:13:14;11.70;99.90
17859;DHT22;35426;30.698;104.050;2023-12-20T07:15:49;11.50;99.90
17859;DHT22;35426;30.698;104.050;2023-12-20T07:18:26;11.70;99.90
17859;DHT22;35426;30.698;104.050;2023-12-20T07:21:00;11.50;99.90
17859;DHT22;35426;30.698;104.050;2023-12-20T07:23:34;11.80;99.90
17859;DHT22;35426;30.698;104.050;2023-12-20T07:26:08;12.00;99.90
17859;DHT22;35426;30.698;104.050;2023-12-20T07:28:42;12.10;99.90
17859;DHT22;35426;30.698;104.050;2023-12-20T07:31:17;12.20;99.90
17859;DHT22;35426;30.698;104.050;2023-12-20T07:33:54;11.90;99.90
17859;DHT22;35426;30.698;104.050;2023-12-20T07:36:28;12.00;99.90
17859;DHT22;35426;30.698;104.050;2023-12-20T07:39:01;11.90;99.90
17859;DHT22;35426;30.698;104.050;2023-12-20T07:41:35;11.70;99.90
17859;DHT22;35426;30.698;104.050;2023-12-20T07:44:11;11.70;99.90
17859;DHT22;35426;30.698;104.050;2023-12-20T07:46:46;11.80;99.90
17859;DHT22;35426;30.698;104.050;2023-12-20T07:49:23;11.80;99.90
17859;DHT22;35426;30.698;104.050;2023-12-20T07:51:57;11.80;99.90
17859;DHT22;35426;30.698;104.050;2023-12-20T07:54:31;11.60;99.90
17859;DHT22;35426;30.698;104.050;2023-12-20T07:57:05;11.40;99.90
17859;DHT22;35426;30.698;104.050;2023-12-20T07:59:42;11.60;99.90
17859;DHT22;35426;30.698;104.050;2023-12-20T08:02:19;11.60;99.90
17859;DHT22;35426;30.698;104.050;2023-12-20T08:04:55;10.90;99.90
17859;DHT22;35426;30.698;104.050;2023-12-20T08:07:31;11.10;99.90
17859;DHT22;35426;30.698;104.050;2023-12-20T08:10:05;11.30;99.90
17859;DHT22;35426;30.698;104.050;2023-12-20T08:12:39;11.30;99.90
17859;DHT22;35426;30.698;104.050;2023-12-20T08:15:14;11.00;99.90
17859;DHT22;35426;30.698;104.050;2023-12-20T08:17:48;11.20;99.90
17859;DHT22;35426;30.698;104.050;2023-12-20T08:20:27;11.20;99.90
17859;DHT22;35426;30.698;104.050;2023-12-20T08:23:11;11.20;99.90
17859;DHT22;35426;30.698;104.050;2023-12-20T08:25:46;11.30;99.90
17859;DHT22;35426;30.698;104.050;2023-12-20T08:28:20;11.20;99.90
17859;DHT22;35426;30.698;104.050;2023-12-20T08:30:55;11.30;99.90
17859;DHT22;35426;30.698;104.050;2023-12-20T08:33:31;11.20;99.90
17859;DHT22;35426;30.698;104.050;2023-12-20T08:36:08;11.10;99.90
17859;DHT22;35426;30.698;104.050;2023-12-20T08:38:43;10.20;99.90
17859;DHT22;35426;30.698;104.050;2023-12-20T08:41:17;9.80;99.90
17859;DHT22;35426;30.698;104.050;2023-12-20T08:43:52;10.10;99.90
17859;DHT22;35426;30.698;104.050;2023-12-20T08:46:26;10.20;99.90
17859;DHT22;35426;30.698;104.050;2023-12-20T08:49:00;10.10;99.90
17859;DHT22;35426;30.698;104.050;2023-12-20T08:51:38;9.60;99.90
17859;DHT22;35426;30.698;104.050;2023-12-20T08:54:14;9.80;99.90
17859;DHT22;35426;30.698;104.050;2023-12-20T08:56:50;9.80;99.90
17859;DHT22;35426;30.698;104.050;2023-12-20T08:59:24;9.80;99.90
17859;DHT22;35426;30.698;104.050;2023-12-20T09:01:59;9.90;99.90
17859;DHT22;35426;30.698;104.050;2023-12-20T09:04:34;10.00;99.90
17859;DHT22;35426;30.698;104.050;2023-12-20T09:07:22;10.20;99.90
17859;DHT22;35426;30.698;104.050;2023-12-20T09:09:56;10.20;99.90
17859;DHT22;35426;30.698;104.050;2023-12-20T09:12:31;10.20;99.90
17859;DHT22;35426;30.698;104.050;2023-12-20T09:15:07;10.10;99.90
17859;DHT22;35426;30.698;104.050;2023-12-20T09:17:41;9.80;99.90
17859;DHT22;35426;30.698;104.050;2023-12-20T09:20:16;9.80;99.90
17859;DHT22;35426;30.698;104.050;2023-12-20T09:22:52;9.80;99.90
17859;DHT22;35426;30.698;104.050;2023-12-20T09:25:29;9.50;99.90
17859;DHT22;35426;30.698;104.050;2023-12-20T09:28:04;9.60;99.90
17859;DHT22;35426;30.698;104.050;2023-12-20T09:30:38;9.70;99.90
17859;DHT22;35426;30.698;104.050;2023-12-20T09:33:12;9.80;99.90
17859;DHT22;35426;30.698;104.050;2023-12-20T09:35:50;9.80;99.90
17859;DHT22;35426;30.698;104.050;2023-12-20T09:38:26;9.50;99.90
17859;DHT22;35426;30.698;104.050;2023-12-20T09:41:00;9.50;99.90
17859;DHT22;35426;30.698;104.050;2023-12-20T09:43:39;9.40;99.90
17859;DHT22;35426;30.698;104.050;2023-12-20T09:46:17;9.50;99.90
17859;DHT22;35426;30.698;104.050;2023-12-20T09:48:57;9.50;99.90
17859;DHT22;35426;30.698;104.050;2023-12-20T09:51:32;9.70;99.90
17859;DHT22;35426;30.698;104.050;2023-12-20T09:54:10;9.80;99.90
17859;DHT22;35426;30.698;104.050;2023-12-20T09:56:45;9.80;99.90
17859;DHT22;35426;30.698;104.050;2023-12-20T09:59:20;9.80;99.90
17859;DHT22;35426;30.698;104.050;2023-12-20T10:01:56;9.60;99.90
17859;DHT22;35426;30.698;104.050;2023-12-20T10:04:32;9.30;99.90
17859;DHT22;35426;30.698;104.050;2023-12-20T10:07:07;9.20;99.90
17859;DHT22;35426;30.698;104.050;2023-12-20T10:09:43;9.10;99.90
17859;DHT22;35426;30.698;104.050;2023-12-20T10:12:17;9.20;99.90
17859;DHT22;35426;30.698;104.050;2023-12-20T10:14:51;9.40;99.90
17859;DHT22;35426;30.698;104.050;2023-12-20T10:17:26;9.30;99.90
17859;DHT22;35426;30.698;104.050;2023-12-20T10:20:03;9.40;99.90
17859;DHT22;35426;30.698;104.050;2023-12-20T10:22:40;9.50;99.90
17859;DHT22;35426;30.698;104.050;2023-12-20T10:25:17;9.50;99.90
17859;DHT22;35426;30.698;104.050;2023-12-20T10:28:09;9.10;99.90
17859;DHT22;35426;30.698;104.050;2023-12-20T10:30:44;9.30;99.90
17859;DHT22;35426;30.698;104.050;2023-12-20T10:33:24;9.30;99.90
17859;DHT22;35426;30.698;104.050;2023-12-20T10:36:02;9.30;99.90
17859;DHT22;35426;30.698;104.050;2023-12-20T10:38:37;9.20;99.90
17859;DHT22;35426;30.698;104.050;2023-12-20T10:41:20;8.90;99.90
17859;DHT22;35426;30.698;104.050;2023-12-20T10:44:00;8.80;99.90
17859;DHT22;35426;30.698;104.050;2023-12-20T10:46:36;8.80;99.90
17859;DHT22;35426;30.698;104.050;2023-12-20T10:49:11;8.70;99.90
17859;DHT22;35426;30.698;104.050;2023-12-20T10:51:48;9.00;99.90
17859;DHT22;35426;30.698;104.050;2023-12-20T10:54:24;8.90;99.90
17859;DHT22;35426;30.698;104.050;2023-12-20T10:57:01;8.90;99.90
17859;DHT22;35426;30.698;104.050;2023-12-20T10:59:38;9.10;99.90
17859;DHT22;35426;30.698;104.050;2023-12-20T11:02:14;9.10;99.90
17859;DHT22;35426;30.698;104.050;2023-12-20T11:05:06;9.10;99.90
17859;DHT22;35426;30.698;104.050;2023-12-20T11:07:43;9.00;99.90
17859;DHT22;35426;30.698;104.050;2023-12-20T11:10:26;8.90;99.90
17859;DHT22;35426;30.698;104.050;2023-12-20T11:13:08;8.80;99.90
17859;DHT22;35426;30.698;104.050;2023-12-20T11:15:45;8.60;99.90
17859;DHT22;35426;30.698;104.050;2023-12-20T11:18:19;8.70;99.90
17859;DHT22;35426;30.698;104.050;2023-12-20T11:20:55;8.60;99.90
17859;DHT22;35426;30.698;104.050;2023-12-20T11:23:35;8.60;99.90
17859;DHT22;35426;30.698;104.050;2023-12-20T11:26:09;8.60;99.90
17859;DHT22;35426;30.698;104.050;2023-12-20T11:28:45;8.70;99.90
17859;DHT22;35426;30.698;104.050;2023-12-20T11:31:19;8.40;99.90
17859;DHT22;35426;30.698;104.050;2023-12-20T11:34:13;8.60;99.90
17859;DHT22;35426;30.698;104.050;2023-12-20T11:36:58;8.60;99.90
17859;DHT22;35426;30.698;104.050;2023-12-20T11:39:32;8.40;99.90
17859;DHT22;35426;30.698;104.050;2023-12-20T11:42:07;8.40;99.90
17859;DHT22;35426;30.698;104.050;2023-12-20T11:44:46;8.40;99.90
17859;DHT22;35426;30.698;104.050;2023-12-20T11:47:20;8.60;99.90
17859;DHT22;35426;30.698;104.050;2023-12-20T11:49:56;8.30;99.90
17859;DHT22;35426;30.698;104.050;2023-12-20T11:52:32;8.10;99.90
17859;DHT22;35426;30.698;104.050;2023-12-20T11:55:07;8.40;99.90
17859;DHT22;35426;30.698;104.050;2023-12-20T11:57:41;8.40;99.90
17859;DHT22;35426;30.698;104.050;2023-12-20T12:00:20;8.50;99.90
17859;DHT22;35426;30.698;104.050;2023-12-20T12:02:58;8.40;99.90
17859;DHT22;35426;30.698;104.050;2023-12-20T12:05:35;8.40;99.90
17859;DHT22;35426;30.698;104.050;2023-12-20T12:08:09;8.20;99.90
17859;DHT22;35426;30.698;104.050;2023-12-20T12:10:44;8.40;99.90
17859;DHT22;35426;30.698;104.050;2023-12-20T12:13:17;8.30;99.90
17859;DHT22;35426;30.698;104.050;2023-12-20T12:15:54;8.30;99.90
17859;DHT22;35426;30.698;104.050;2023-12-20T12:18:28;8.30;99.90
17859;DHT22;35426;30.698;104.050;2023-12-20T12:21:03;8.20;99.90
17859;DHT22;35426;30.698;104.050;2023-12-20T12:23:47;8.30;99.90
17859;DHT22;35426;30.698;104.050;2023-12-20T12:26:20;8.30;99.90
17859;DHT22;35426;30.698;104.050;2023-12-20T12:28:56;8.40;99.90
17859;DHT22;35426;30.698;104.050;2023-12-20T12:31:32;8.60;99.90
17859;DHT22;35426;30.698;104.050;2023-12-20T12:34:07;8.50;99.90
17859;DHT22;35426;30.698;104.050;2023-12-20T12:36:42;8.30;99.90
17859;DHT22;35426;30.698;104.050;2023-12-20T12:39:18;8.20;99.90
17859;DHT22;35426;30.698;104.050;2023-12-20T12:41:53;8.30;99.90
17859;DHT22;35426;30.698;104.050;2023-12-20T12:44:29;8.30;99.90
17859;DHT22;35426;30.698;104.050;2023-12-20T12:47:04;8.40;99.90
17859;DHT22;35426;30.698;104.050;2023-12-20T12:49:38;8.40;99.90
17859;DHT22;35426;30.698;104.050;2023-12-20T12:52:13;8.50;99.90
17859;DHT22;35426;30.698;104.050;2023-12-20T12:54:47;8.50;99.90
17859;DHT22;35426;30.698;104.050;2023-12-20T12:57:23;8.50;99.90
17859;DHT22;35426;30.698;104.050;2023-12-20T12:59:57;8.50;99.90
17859;DHT22;35426;30.698;104.050;2023-12-20T13:02:33;8.30;99.90
17859;DHT22;35426;30.698;104.050;2023-12-20T13:05:08;8.20;99.90
17859;DHT22;35426;30.698;104.050;2023-12-20T13:07:43;8.10;99.90
17859;DHT22;35426;30.698;104.050;2023-12-20T13:10:18;8.10;99.90
17859;DHT22;35426;30.698;104.050;2023-12-20T13:12:52;8.30;99.90
17859;DHT22;35426;30.698;104.050;2023-12-20T13:15:26;8.20;99.90
17859;DHT22;35426;30.698;104.050;2023-12-20T13:18:05;8.20;99.90
17859;DHT22;35426;30.698;104.050;2023-12-20T13:20:39;8.10;99.90
17859;DHT22;35426;30.698;104.050;2023-12-20T13:23:13;8.10;99.90
17859;DHT22;35426;30.698;104.050;2023-12-20T13:25:49;8.40;99.90
17859;DHT22;35426;30.698;104.050;2023-12-20T13:28:22;8.50;99.90
17859;DHT22;35426;30.698;104.050;2023-12-20T13:30:57;8.60;99.90
17859;DHT22;35426;30.698;104.050;2023-12-20T13:33:32;8.70;99.90
17859;DHT22;35426;30.698;104.050;2023-12-20T13:36:14;8.80;99.90
17859;DHT22;35426;30.698;104.050;2023-12-20T13:38:48;8.80;99.90
17859;DHT22;35426;30.698;104.050;2023-12-20T13:41:22;9.00;99.90
17859;DHT22;35426;30.698;104.050;2023-12-20T13:43:56;8.90;99.90
17859;DHT22;35426;30.698;104.050;2023-12-20T13:46:31;8.60;99.90
17859;DHT22;35426;30.698;104.050;2023-12-20T13:49:20;8.50;99.90
17859;DHT22;35426;30.698;104.050;2023-12-20T13:51:59;8.60;99.90
17859;DHT22;35426;30.698;104.050;2023-12-20T13:54:32;8.70;99.90
17859;DHT22;35426;30.698;104.050;2023-12-20T13:57:07;8.80;99.90
17859;DHT22;35426;30.698;104.050;2023-12-20T14:00:02;8.90;99.90
17859;DHT22;35426;30.698;104.050;2023-12-20T14:02:40;8.70;99.90
17859;DHT22;35426;30.698;104.050;2023-12-20T14:05:18;8.70;99.90
17859;DHT22;35426;30.698;104.050;2023-12-20T14:07:57;8.60;99.90
17859;DHT22;35426;30.698;104.050;2023-12-20T14:10:31;8.70;99.90
17859;DHT22;35426;30.698;104.050;2023-12-20T14:13:05;8.60;99.90
17859;DHT22;35426;30.698;104.050;2023-12-20T14:15:40;8.60;99.90
17859;DHT22;35426;30.698;104.050;2023-12-20T14:18:15;8.80;99.90
17859;DHT22;35426;30.698;104.050;2023-12-20T14:20:51;8.70;99.90
17859;DHT22;35426;30.698;104.050;2023-12-20T14:23:27;8.80;99.90
17859;DHT22;35426;30.698;104.050;2023-12-20T14:26:07;8.90;99.90
17859;DHT22;35426;30.698;104.050;2023-12-20T14:28:47;9.00;99.90
17859;DHT22;35426;30.698;104.050;2023-12-20T14:31:21;8.70;99.90
17859;DHT22;35426;30.698;104.050;2023-12-20T14:33:55;8.60;99.90
17859;DHT22;35426;30.698;104.050;2023-12-20T14:36:32;8.70;99.90
17859;DHT22;35426;30.698;104.050;2023-12-20T14:39:09;8.60;99.90
17859;DHT22;35426;30.698;104.050;2023-12-20T14:41:53;8.60;99.90
17859;DHT22;35426;30.698;104.050;2023-12-20T14:44:36;8.50;99.90
17859;DHT22;35426;30.698;104.050;2023-12-20T14:47:10;8.50;99.90
17859;DHT22;35426;30.698;104.050;2023-12-20T14:49:46;8.40;99.90
17859;DHT22;35426;30.698;104.050;2023-12-20T14:52:24;8.50;99.90
17859;DHT22;35426;30.698;104.050;2023-12-20T14:54:58;8.40;99.90
17859;DHT22;35426;30.698;104.050;2023-12-20T14:57:34;8.40;99.90
17859;DHT22;35426;30.698;104.050;2023-12-20T15:00:09;8.40;99.90
17859;DHT22;35426;30.698;104.050;2023-12-20T15:02:50;8.30;99.90
17859;DHT22;35426;30.698;104.050;2023-12-20T15:05:25;8.30;99.90
17859;DHT22;35426;30.698;104.050;2023-12-20T15:08:01;8.30;99.90
17859;DHT22;35426;30.698;104.050;2023-12-20T15:10:39;8.10;99.90
17859;DHT22;35426;30.698;104.050;2023-12-20T15:13:13;8.20;99.90
17859;DHT22;35426;30.698;104.050;2023-12-20T15:15:51;8.30;99.90
17859;DHT22;35426;30.698;104.050;2023-12-20T15:18:26;8.10;99.90
17859;DHT22;35426;30.698;104.050;2023-12-20T15:21:01;8.00;99.90
17859;DHT22;35426;30.698;104.050;2023-12-20T15:23:40;8.20;99.90
17859;DHT22;35426;30.698;104.050;2023-12-20T15:26:23;8.30;99.90
17859;DHT22;35426;30.698;104.050;2023-12-20T15:29:05;8.10;99.90
17859;DHT22;35426;30.698;104.050;2023-12-20T15:31:44;8.10;99.90
17859;DHT22;35426;30.698;104.050;2023-12-20T15:34:18;8.20;99.90
17859;DHT22;35426;30.698;104.050;2023-12-20T15:36:53;8.20;99.90
17859;DHT22;35426;30.698;104.050;2023-12-20T15:39:32;8.10;99.90
17859;DHT22;35426;30.698;104.050;2023-12-20T15:42:10;8.10;99.90
17859;DHT22;35426;30.698;104.050;2023-12-20T15:44:44;8.20;99.90
17859;DHT22;35426;30.698;104.050;2023-12-20T15:47:18;8.30;99.90
17859;DHT22;35426;30.698;104.050;2023-12-20T15:49:52;8.30;99.90
17859;DHT22;35426;30.698;104.050;2023-12-20T15:52:27;8.40;99.90
17859;DHT22;35426;30.698;104.050;2023-12-20T15:55:04;8.10;99.90
17859;DHT22;35426;30.698;104.050;2023-12-20T15:57:38;8.10;99.90
17859;DHT22;35426;30.698;104.050;2023-12-20T16:00:23;8.00;99.90
17859;DHT22;35426;30.698;104.050;2023-12-20T16:02:56;8.00;99.90